createdAt,value
2018-05-12T00:01:16.641Z,25.87
2018-05-12T00:06:07.687Z,26.97
2018-05-12T00:10:58.749Z,26.93
2018-05-12T00:15:49.785Z,26.77
2018-05-12T00:20:41.532Z,26.53
2018-05-12T00:25:33.362Z,24.90
2018-05-12T00:30:24.383Z,25.43
2018-05-12T00:35:15.471Z,25.53
2018-05-12T00:40:06.477Z,25.70
2018-05-12T00:44:57.509Z,25.03
2018-05-12T00:49:48.539Z,24.93
2018-05-12T00:54:39.598Z,24.97
2018-05-12T00:59:31.362Z,25.10
2018-05-12T01:04:22.388Z,24.50
2018-05-12T01:09:13.469Z,25.00
2018-05-12T01:14:04.499Z,26.23
2018-05-12T01:18:55.548Z,25.17
2018-05-12T01:23:47.325Z,26.27
2018-05-12T01:28:38.442Z,25.07
2018-05-12T01:33:29.464Z,24.50
2018-05-12T01:38:20.524Z,24.13
2018-05-12T01:43:11.540Z,22.53
2018-05-12T01:48:02.569Z,22.07
2018-05-12T01:52:53.626Z,24.67
2018-05-12T01:57:45.448Z,24.13
2018-05-12T02:02:36.471Z,22.60
2018-05-12T02:07:27.487Z,22.13
2018-05-12T02:12:18.598Z,21.27
2018-05-12T02:17:09.662Z,19.60
2018-05-12T02:22:01.434Z,21.03
2018-05-12T02:26:52.460Z,21.23
2018-05-12T02:31:43.555Z,20.40
2018-05-12T02:36:34.606Z,18.80
2018-05-12T02:41:25.635Z,17.73
2018-05-12T02:46:16.651Z,18.67
2018-05-12T02:51:07.655Z,18.43
2018-05-12T02:55:58.735Z,18.00
2018-05-12T03:00:49.801Z,17.67
2018-05-12T03:05:40.853Z,17.67
2018-05-12T03:10:31.883Z,18.97
2018-05-12T03:15:22.928Z,18.73
2018-05-12T03:20:13.937Z,19.80
2018-05-12T03:25:04.960Z,19.67
2018-05-12T03:29:55.969Z,19.90
2018-05-12T03:34:46.989Z,20.33
2018-05-12T03:39:38.023Z,19.97
2018-05-12T03:44:29.051Z,20.70
2018-05-12T03:49:20.087Z,19.90
2018-05-12T03:54:11.137Z,20.67
2018-05-12T03:59:02.919Z,20.00
2018-05-12T04:03:53.979Z,19.73
2018-05-12T04:09:04.568Z,20.37
2018-05-12T04:13:55.652Z,21.83
2018-05-12T04:18:46.676Z,22.43
2018-05-12T04:23:37.688Z,21.17
2018-05-12T04:28:28.720Z,25.63
2018-05-12T04:33:19.817Z,24.83
2018-05-12T04:38:10.872Z,24.73
2018-05-12T04:43:01.914Z,24.37
2018-05-12T04:47:52.941Z,28.17
2018-05-12T04:52:43.955Z,25.23
2018-05-12T04:57:34.989Z,26.10
2018-05-12T05:02:26.057Z,23.00
2018-05-12T05:07:17.096Z,22.50
2018-05-12T05:12:08.121Z,24.37
2018-05-12T05:16:59.180Z,25.63
2018-05-12T05:21:50.255Z,26.97
2018-05-12T05:26:41.400Z,25.87
2018-05-12T05:31:32.596Z,30.30
2018-05-12T05:36:24.421Z,28.50
2018-05-12T05:41:15.449Z,27.17
2018-05-12T05:46:07.231Z,27.77
2018-05-12T05:50:58.309Z,25.97
2018-05-12T05:55:49.315Z,26.17
2018-05-12T06:00:40.364Z,26.27
2018-05-12T06:05:32.135Z,29.10
2018-05-12T06:10:23.178Z,27.30
2018-05-12T06:15:14.231Z,28.97
2018-05-12T06:20:05.240Z,31.97
2018-05-12T06:24:56.280Z,28.63
2018-05-12T06:29:47.309Z,28.97
2018-05-12T06:34:38.319Z,30.67
2018-05-12T06:39:29.456Z,30.80
2018-05-12T06:44:20.498Z,30.27
2018-05-12T06:49:12.280Z,28.33
2018-05-12T06:54:03.317Z,32.40
2018-05-12T06:58:54.365Z,30.03
2018-05-12T07:03:45.376Z,33.77
2018-05-12T07:08:36.425Z,33.40
2018-05-12T07:13:28.194Z,31.60
2018-05-12T07:18:19.237Z,31.23
2018-05-12T07:23:10.297Z,30.53
2018-05-12T07:28:01.324Z,30.07
2018-05-12T07:32:53.101Z,29.53
2018-05-12T07:37:44.112Z,24.63
2018-05-12T07:42:35.195Z,28.70
2018-05-12T07:47:26.282Z,29.30
2018-05-12T07:52:17.368Z,28.07
2018-05-12T07:57:09.136Z,28.57
2018-05-12T08:02:00.212Z,27.87
2018-05-12T08:06:51.282Z,26.87
2018-05-12T08:11:42.319Z,27.27
2018-05-12T08:16:33.359Z,26.33
2018-05-12T08:21:24.398Z,26.07
2018-05-12T08:26:15.439Z,25.57
2018-05-12T08:31:07.223Z,24.33
2018-05-12T08:35:58.251Z,24.40
2018-05-12T08:40:49.270Z,24.13
2018-05-12T08:45:40.415Z,25.37
2018-05-12T08:50:31.450Z,24.47
2018-05-12T08:55:23.999Z,23.07
2018-05-12T09:00:15.050Z,25.70
2018-05-12T09:05:06.077Z,21.87
2018-05-12T09:09:57.861Z,20.40
2018-05-12T09:14:48.899Z,18.63
2018-05-12T09:19:39.989Z,20.10
2018-05-12T09:24:31.022Z,20.20
2018-05-12T09:29:22.095Z,19.70
2018-05-12T09:34:13.115Z,19.00
2018-05-12T09:39:04.123Z,20.37
2018-05-12T09:43:55.250Z,18.97
2018-05-12T09:48:46.306Z,19.43
2018-05-12T09:53:38.079Z,18.57
2018-05-12T09:58:29.143Z,18.87
2018-05-12T10:03:20.277Z,18.87
2018-05-12T10:08:11.300Z,19.03
2018-05-12T10:13:02.345Z,19.23
2018-05-12T10:17:54.126Z,16.97
2018-05-12T10:22:45.214Z,17.37
2018-05-12T10:27:36.283Z,16.70
2018-05-12T10:32:27.342Z,15.53
2018-05-12T10:37:18.382Z,17.07
2018-05-12T10:42:10.303Z,18.50
2018-05-12T10:47:01.377Z,17.43
2018-05-12T10:51:52.414Z,18.07
2018-05-12T10:56:43.469Z,15.73
2018-05-12T11:01:34.535Z,17.57
2018-05-12T11:06:26.283Z,16.57
2018-05-12T11:11:17.350Z,17.50
2018-05-12T11:16:08.473Z,17.90
2018-05-12T11:20:59.406Z,16.37
2018-05-12T11:25:50.461Z,15.17
2018-05-12T11:30:42.348Z,17.30
2018-05-12T11:35:33.423Z,15.53
2018-05-12T11:40:25.227Z,15.80
2018-05-12T11:45:16.265Z,15.73
2018-05-12T11:50:07.375Z,14.77
2018-05-12T11:54:58.389Z,15.33
2018-05-12T11:59:49.430Z,14.60
2018-05-12T12:04:41.220Z,15.37
2018-05-12T12:09:32.356Z,15.10
2018-05-12T12:14:23.405Z,14.50
2018-05-12T12:19:14.466Z,15.17
2018-05-12T12:24:06.230Z,15.47
2018-05-12T12:28:57.356Z,13.80
2018-05-12T12:33:48.386Z,15.03
2018-05-12T12:38:39.424Z,14.10
2018-05-12T12:43:31.597Z,14.30
2018-05-12T12:48:22.702Z,13.67
2018-05-12T12:53:13.755Z,14.63
2018-05-12T12:58:05.665Z,13.63
2018-05-12T13:02:56.699Z,13.37
2018-05-12T13:07:47.720Z,12.57
2018-05-12T13:12:38.722Z,14.07
2018-05-12T13:17:29.758Z,13.23
2018-05-12T13:22:20.785Z,12.23
2018-05-12T13:27:11.864Z,13.10
2018-05-12T13:32:03.643Z,12.73
2018-05-12T13:36:54.723Z,13.33
2018-05-12T13:41:45.808Z,12.60
2018-05-12T13:46:36.831Z,12.00
2018-05-12T13:51:27.874Z,12.53
2018-05-12T13:56:18.895Z,13.07
2018-05-12T14:01:10.200Z,10.50
2018-05-12T14:06:01.211Z,10.90
2018-05-12T14:10:52.270Z,10.30
2018-05-12T14:15:43.317Z,10.23
2018-05-12T14:20:35.113Z,9.53
2018-05-12T14:25:26.228Z,11.70
2018-05-12T14:30:17.322Z,9.80
2018-05-12T14:35:08.377Z,10.17
2018-05-12T14:39:59.401Z,9.10
2018-05-12T14:44:50.465Z,10.20
2018-05-12T14:49:41.527Z,10.60
2018-05-12T14:54:32.631Z,9.80
2018-05-12T14:59:24.396Z,9.30
2018-05-12T15:04:15.451Z,9.87
2018-05-12T15:09:06.526Z,9.27
2018-05-12T15:13:57.579Z,9.40
2018-05-12T15:18:48.592Z,9.17
2018-05-12T15:23:39.670Z,9.23
2018-05-12T15:28:30.704Z,8.40
2018-05-12T15:33:22.474Z,8.17
2018-05-12T15:38:13.505Z,8.30
2018-05-12T15:43:04.553Z,8.03
2018-05-12T15:47:55.584Z,7.83
2018-05-12T15:52:46.609Z,8.30
2018-05-12T15:57:38.382Z,7.87
2018-05-12T16:02:30.257Z,8.97
2018-05-12T16:07:21.287Z,8.70
2018-05-12T16:12:12.382Z,8.70
2018-05-12T16:17:04.140Z,8.50
2018-05-12T16:21:56.678Z,9.20
2018-05-12T16:26:47.721Z,9.00
2018-05-12T16:31:38.854Z,12.00
2018-05-12T16:36:29.814Z,15.87
2018-05-12T16:41:20.869Z,8.80
2018-05-12T16:46:12.664Z,8.43
2018-05-12T16:51:03.777Z,9.03
2018-05-12T16:55:54.905Z,9.20
2018-05-12T17:00:45.933Z,8.87
2018-05-12T17:05:36.993Z,9.53
2018-05-12T17:10:28.771Z,9.30
2018-05-12T17:15:19.809Z,9.90
2018-05-12T17:20:10.849Z,9.33
2018-05-12T17:25:01.862Z,10.30
2018-05-12T17:29:52.938Z,10.13
2018-05-12T17:34:44.671Z,9.50
2018-05-12T17:39:36.453Z,9.53
2018-05-12T17:44:27.505Z,10.20
2018-05-12T17:49:18.592Z,10.67
2018-05-12T17:54:09.619Z,10.63
2018-05-12T17:59:00.685Z,10.40
2018-05-12T18:03:51.707Z,9.97
2018-05-12T18:08:42.755Z,9.80
2018-05-12T18:13:33.769Z,10.93
2018-05-12T18:18:25.527Z,10.87
2018-05-12T18:23:16.628Z,11.17
2018-05-12T18:28:07.636Z,11.10
2018-05-12T18:32:58.689Z,12.00
2018-05-12T18:37:52.133Z,13.47
2018-05-12T18:42:43.270Z,12.07
2018-05-12T18:47:38.286Z,13.50
2018-05-12T18:52:29.359Z,13.37
2018-05-12T18:57:20.427Z,13.50
2018-05-12T19:02:11.463Z,13.47
2018-05-12T19:07:03.219Z,13.37
2018-05-12T19:11:55.001Z,13.40
2018-05-12T19:16:46.031Z,13.93
2018-05-12T19:21:37.075Z,14.83
2018-05-12T19:26:28.276Z,14.30
2018-05-12T19:31:19.313Z,16.00
2018-05-12T19:36:10.337Z,14.93
2018-05-12T19:41:01.377Z,15.17
2018-05-12T19:45:52.387Z,16.27
2018-05-12T19:50:43.441Z,17.10
2018-05-12T19:55:35.249Z,17.17
2018-05-12T20:00:26.279Z,17.37
2018-05-12T20:05:17.337Z,16.30
2018-05-12T20:10:08.410Z,17.83
2018-05-12T20:14:59.471Z,17.80
2018-05-12T20:19:51.199Z,16.70
2018-05-12T20:24:42.229Z,16.63
2018-05-12T20:29:33.967Z,16.43
2018-05-12T20:34:25.747Z,15.53
2018-05-12T20:39:16.821Z,15.40
2018-05-12T20:44:07.879Z,14.90
2018-05-12T20:48:58.941Z,15.10
2018-05-12T20:53:49.971Z,14.87
2018-05-12T20:58:40.986Z,15.63
2018-05-12T21:03:32.011Z,14.63
2018-05-12T21:08:23.046Z,14.77
2018-05-12T21:13:14.047Z,14.70
2018-05-12T21:18:05.080Z,14.13
2018-05-12T21:22:56.125Z,14.00
2018-05-12T21:27:47.143Z,14.40
2018-05-12T21:32:38.158Z,15.00
2018-05-12T21:37:29.175Z,14.73
2018-05-12T21:42:20.253Z,13.40
2018-05-12T21:47:11.275Z,13.67
2018-05-12T21:52:03.066Z,13.70
2018-05-12T21:56:54.127Z,13.70
2018-05-12T22:01:45.916Z,13.27
2018-05-12T22:06:36.941Z,12.90
2018-05-12T22:11:27.983Z,12.93
2018-05-12T22:16:19.036Z,12.43
2018-05-12T22:21:10.843Z,12.03
2018-05-12T22:26:01.878Z,11.60
2018-05-12T22:30:52.919Z,12.10
2018-05-12T22:35:44.014Z,12.10
2018-05-12T22:40:35.031Z,12.23
2018-05-12T22:45:26.080Z,11.53
2018-05-12T22:50:17.101Z,12.33
2018-05-12T22:55:08.123Z,11.73
2018-05-12T22:59:59.167Z,11.77
2018-05-12T23:04:50.954Z,12.27
2018-05-12T23:09:41.977Z,12.50
2018-05-12T23:14:33.005Z,11.80
2018-05-12T23:19:24.047Z,11.30
2018-05-12T23:24:15.210Z,11.70
2018-05-12T23:29:06.220Z,12.37
2018-05-12T23:33:57.999Z,11.80
2018-05-12T23:38:56.093Z,11.80
2018-05-12T23:43:47.187Z,12.70
2018-05-12T23:48:38.976Z,12.13
2018-05-12T23:53:30.016Z,12.20
2018-05-12T23:58:21.858Z,11.43
